ADDS METAR Data INFO
IDs: Format: Raw Decoded Include TAF

Data at: 2051 UTC 26 May 2017

KTYR 261953Z 19018G23KT 10SM BKN036 31/22 A2983 RMK AO2 PK WND 21026/1903 SLP092 T03060222
KTYR 261853Z 21015G25KT 10SM BKN032 31/23 A2983 RMK AO2 PK WND 20027/1801 SLP094 T03060228
KTYR 261753Z 20020G28KT 10SM BKN031 30/22 A2984 RMK AO2 PK WND 21028/1748 SLP097 T03000222 10300 20228 50000
KTYR 261735Z 20016G27KT 10SM BKN031 30/22 A2984 RMK AO2 PK WND 19027/1726 T03000222
KTYR 261703Z 20020G27KT 10SM BKN029 29/22 A2984 RMK AO2 PK WND 21027/1700 T02940222
KTYR 261653Z 21017G26KT 10SM SCT028 29/22 A2984 RMK AO2 PK WND 18026/1650 SLP098 T02940222
KTYR 261625Z 22017G26KT 10SM SCT028 29/22 A2984 RMK AO2 PK WND 21026/1619 T02890217
KTYR 261553Z 20018G26KT 10SM OVC027 27/22 A2984 RMK AO2 PK WND 21026/1550 SLP096 T02720217
KTYR 261453Z 20016KT 10SM OVC026 26/22 A2984 RMK AO2 SLP096 T02610222 51014
KTYR 261353Z 19010KT 10SM OVC026 24/22 A2983 RMK AO2 SLP095 T02390217
KTYR 261253Z 19011KT 10SM OVC025 23/21 A2982 RMK AO2 SLP088 T02330211
KTYR 261153Z 19012KT 10SM OVC024 23/21 A2980 RMK AO2 SLP082 T02280211 10228 20211 51012
KTYR 261053Z AUTO 20016KT 10SM OVC024 23/21 A2978 RMK AO2 SLP077 T02280206
KTYR 260953Z AUTO 20017G23KT 10SM OVC016 23/19 A2978 RMK AO2 SLP075 T02280194
KTYR 260921Z AUTO 20017G22KT 10SM BKN019 22/18 A2977 RMK AO2 T02170183
KTYR 260853Z AUTO 18011KT 10SM CLR 21/17 A2976 RMK AO2 SLP070 T02110172 53010
KTYR 260753Z AUTO 19012KT 10SM CLR 22/17 A2974 RMK AO2 SLP063 T02170167
KTYR 260653Z AUTO 19015KT 10SM CLR 22/16 A2973 RMK AO2 SLP059 T02220156
KTYR 260553Z AUTO 18014KT 10SM CLR 23/16 A2973 RMK AO2 SLP060 T02280156 10294 20228 403110133 51008
KTYR 260453Z AUTO 18012KT 10SM CLR 23/16 A2973 RMK AO2 SLP058 T02330161
KTYR 260353Z AUTO 18009KT 10SM CLR 23/17 A2973 RMK AO2 SLP059 T02330167
KTYR 260253Z AUTO 17007KT 10SM CLR 24/17 A2971 RMK AO2 SLP053 T02390172 53014
KTYR 260153Z 17006KT 10SM CLR 25/17 A2969 RMK AO2 SLP047 T02500172
KTYR 260053Z 19011KT 10SM CLR 28/17 A2968 RMK AO2 SLP043 T02780167
KTYR 252353Z 18014KT 10SM CLR 29/17 A2967 RMK AO2 SLP039 T02940172 10311 20278 56015
KTYR 252253Z 19019KT 10SM CLR 30/17 A2967 RMK AO2 PK WND 19029/2207 SLP041 T03000167
KTYR 252153Z 18017G25KT 10SM CLR 31/16 A2970 RMK AO2 PK WND 20029/2140 SLP049 T03060161
KTYR 252053Z 17018G26KT 10SM CLR 31/16 A2971 RMK AO2 PK WND 17026/2051 SLP054 T03060161 57018
KTYR 251953Z 18015KT 10SM CLR 30/17 A2973 RMK AO2 SLP059 T03000167
KTYR 251853Z 21019G23KT 10SM CLR 29/16 A2975 RMK AO2 SLP068 T02940161
KTYR 251753Z 21018G24KT 10SM CLR 28/14 A2976 RMK AO2 SLP073 T02780144 10283 20150 56006
KTYR 251653Z 19013KT 10SM CLR 27/15 A2977 RMK AO2 SLP074 T02670150
KTYR 251553Z 18013KT 10SM CLR 25/14 A2977 RMK AO2 SLP073 T02500139
KTYR 251453Z 20011KT 10SM CLR 23/14 A2978 RMK AO2 SLP079 T02330139 58001
KTYR 251353Z 17010KT 10SM CLR 20/12 A2979 RMK AO2 SLP082 T02000122
KTYR 251253Z 15009KT 10SM CLR 17/11 A2979 RMK AO2 SLP080 T01720111
KTYR 251153Z 14008KT 10SM CLR 15/11 A2978 RMK AO2 SLP079 T01500111 10156 20133 53013
KTYR 251053Z AUTO 15008KT 10SM CLR 14/11 A2977 RMK AO2 SLP075 T01390111
KTYR 250953Z AUTO 12007KT 10SM CLR 14/11 A2975 RMK AO2 SLP069 T01440111
KTYR 250853Z AUTO 12004KT 10SM CLR 14/12 A2974 RMK AO2 SLP067 T01440117 53001


Page loaded:  20:51 UTC  |   01:51 PM Pacific  |   02:51 PM Mountain  |   03:51 PM Central  |   04:51 PM Eastern

 

ADVISORIES

FORECASTS

FORECASTS

OBSERVATIONS

USER TOOLS

ABOUT US